Strona główna
METAR-TAF:

METAR-TAF

Lotnisko :

Port lotniczy Banjarmasin

Banjarmasin, Indonezja

Szerokość geograficzna: 03-26-32S, Długość geograficzna: 114-45-45E, wysokość: 20 m

Aktualna obserwacja pogody

Raport powstał 43 minut temu, godzina 19:00 UTC
Wiatr 2 kt od południowy zachód
Temperatura 24°C
Wilgotność 100%
Ciśnienie 1011 hPa
Widzialność: 5000 m

METAR: WAOO 111900Z AUTO 23002KT 5000 NCD 24/24 Q1011

czas: 02:43 (19:43 UTC)

Prognoza

Raport powstał 2 godziny i 43 minut temu, godzina 17:00 UTC
Prognoza ważna od 11 godzina 18 UTC do 12 godzina 18 UTC
Wiatr 5 kt od południowo-południowy wschód
Widzialność 10 km lub więcej
Rozproszone chmury na wysokości 1800 ft

TAF: WAOO 111700Z 1118/1218 15005KT 9999 SCT018

Obserwacja i prognoza pogody dla ponad 4000 lotnisk (raport METAR i TAF).

Dostępne stacje oznaczono żółtymi i czerwonymi punktami na mapie.

Najedź kursorem aby zobaczyć nazwę stacji.

Kliknij aby zobaczyć obserwacje i prognozy pogody.

Aby zmienić mapę: kliknij na zielony przycisk z czarnym krzyżykiem, aby powiększyć; na zielony przycisk z myślnikiem, aby pomniejszyć; na zielone strzałki, aby przejść do map sąsiednich.


METAR-TAF: